Adelina D — MNRP6 — position and weather

sailwx.info

Track history (hours):
 
Tides and Currents Weather Stations Pressure Air Temp Water Temp Dewpoint Dewpoint Depression Visibility Wind Speed Wind Dir Waves Ship Positions

Adelina D

Last reported at 2018-Jun-22 19:59 UTC. Time now 2018-Jun-22 20:22 UTC.
Position N 53°36' E 008°09'.

Length 166 m; draft 9.4 m.

Type: Ship (hazmat cat A). MMSI: 235011610.

Date/timePositionNaut miles runAvg speedWind from/ knotsBaromVisibWave heightAir tempDewpointWater temp
2018-Jun-22 19:59N 53°36' E 008°09'27 6.7
2018-Jun-22 15:56N 53°57' E 008°37'614.1
2018-Jun-22 15:30N 53°53' E 008°43'714.8
2018-Jun-22 15:01N 53°51' E 008°55'815.4
2018-Jun-22 14:30N 53°53' E 009°08'1 1.3
2018-Jun-22 14:00N 53°54' E 009°09'2 3.2
2018-Jun-22 13:30N 53°55' E 009°11'3 6.6
2018-Jun-22 13:00N 53°57' E 009°14'3 6.6
2018-Jun-22 12:30N 53°60' E 009°18'3 6.6
2018-Jun-22 12:00N 54°03' E 009°18'4 6.7
2018-Jun-22 11:20N 54°08' E 009°20'2 5.9
2018-Jun-22 11:00N 54°09' E 009°22'38 5.2
2018-Jun-22 03:39N 54°29' E 010°17'412.3
2018-Jun-22 03:20N 54°31' E 010°23'515.3
2018-Jun-22 03:00N 54°33' E 010°31'816.2
2018-Jun-22 02:30N 54°35' E 010°45'815.2
2018-Jun-22 02:00N 54°36' E 010°58'714.1
2018-Jun-22 01:30N 54°36' E 011°10'713.7
2018-Jun-22 01:00N 54°33' E 011°20'714.5
2018-Jun-22 00:30N 54°30' E 011°31'714.6
2018-Jun-22 00:00N 54°27' E 011°43'714.2
2018-Jun-21 23:30N 54°27' E 011°55'6314.4
2018-Jun-21 19:08N 54°57' E 013°30'315.6
2018-Jun-21 18:58N 54°58' E 013°34'915.3
2018-Jun-21 18:24N 55°01' E 013°49'815.7
2018-Jun-21 17:52N 55°04' E 014°02'616.1
2018-Jun-21 17:30N 55°08' E 014°10'816.4
2018-Jun-21 17:00N 55°14' E 014°20'916.6
2018-Jun-21 16:26N 55°22' E 014°30'716.3
2018-Jun-21 15:59N 55°27' E 014°39'816.5
2018-Jun-21 15:28N 55°31' E 014°52'816.5
2018-Jun-21 15:00N 55°35' E 015°04'18615.2
2018-Jun-21 02:46N 58°24' E 017°26'416.4
2018-Jun-21 02:30N 58°29' E 017°27'815.7
2018-Jun-21 02:00N 58°36' E 017°26'611.7
2018-Jun-21 01:31N 58°37' E 017°15'816.6
2018-Jun-21 01:01N 58°37' E 016°59'816.7
2018-Jun-21 00:31N 58°37' E 016°43'713.4
2018-Jun-21 00:01N 58°39' E 016°31'713.5
2018-Jun-20 23:31N 58°38' E 016°18'2 3.4
2018-Jun-20 23:01N 58°37' E 016°15'0 0.0
2018-Jun-20 22:31N 58°37' E 016°15'0 0.0
2018-Jun-20 22:01N 58°37' E 016°15'0 0.0
2018-Jun-20 21:31N 58°37' E 016°15'0 0.0
2018-Jun-20 21:01N 58°37' E 016°15'0 0.0
2018-Jun-20 20:31N 58°37' E 016°15'0 0.0
2018-Jun-20 20:01N 58°37' E 016°15'0 0.0
2018-Jun-20 19:31N 58°37' E 016°15'0 0.0
2018-Jun-20 18:58N 58°37' E 016°15'0 0.0
2018-Jun-20 18:31N 58°37' E 016°15'0 0.0
2018-Jun-20 17:58N 58°37' E 016°15'0 0.0
2018-Jun-20 17:31N 58°37' E 016°15'0 0.0
2018-Jun-20 17:01N 58°37' E 016°15'0 0.0
2018-Jun-20 16:31N 58°37' E 016°15'0 0.0
2018-Jun-20 16:01N 58°37' E 016°15'0 0.0
2018-Jun-20 15:29N 58°37' E 016°15'0 0.0
2018-Jun-20 14:59N 58°37' E 016°15'0 0.1
2018-Jun-20 14:26N 58°37' E 016°15'0 0.0
2018-Jun-20 13:59N 58°37' E 016°15'0 0.0
2018-Jun-20 13:30N 58°37' E 016°15'0 0.0
2018-Jun-20 12:59N 58°37' E 016°15'0 0.0
2018-Jun-20 12:29N 58°37' E 016°15'0 0.0
2018-Jun-20 11:59N 58°37' E 016°15'0 0.0
2018-Jun-20 11:30N 58°37' E 016°15'0 0.0
2018-Jun-20 10:59N 58°37' E 016°15'0 0.0
2018-Jun-20 10:29N 58°37' E 016°15'0 0.0
2018-Jun-20 10:00N 58°37' E 016°15'0 0.0
2018-Jun-20 09:30N 58°37' E 016°15'0 0.0
2018-Jun-20 08:59N 58°37' E 016°15'0 0.0
2018-Jun-20 08:29N 58°37' E 016°15'0 0.0
2018-Jun-20 07:59N 58°37' E 016°15'0 0.0
2018-Jun-20 07:29N 58°37' E 016°15'0 0.0
2018-Jun-20 07:00N 58°37' E 016°15'0 0.0
2018-Jun-20 06:29N 58°37' E 016°15'0 0.0
2018-Jun-20 05:59N 58°37' E 016°15'0 0.0
2018-Jun-20 05:29N 58°37' E 016°15'0 0.0
2018-Jun-20 05:00N 58°37' E 016°15'0 0.0
2018-Jun-20 04:29N 58°37' E 016°15'0 0.0
2018-Jun-20 04:00N 58°37' E 016°15'0 0.0
2018-Jun-20 03:29N 58°37' E 016°15'0 0.0
2018-Jun-20 03:00N 58°37' E 016°15'1 2.5
2018-Jun-20 02:30N 58°38' E 016°17'612.2
2018-Jun-20 02:00N 58°39' E 016°28'612.5
2018-Jun-20 01:31N 58°38' E 016°40'713.7
2018-Jun-20 01:01N 58°36' E 016°53'816.0
2018-Jun-20 00:30N 58°38' E 017°08'815.2
2018-Jun-20 00:00N 58°37' E 017°23'510.5
2018-Jun-19 23:30N 58°36' E 017°32'9710.3
2018-Jun-19 14:08N 59°49' E 019°37'218.0
2018-Jun-19 14:00N 59°50' E 019°34'1117.2
2018-Jun-19 13:23N 59°59' E 019°21'717.6
2018-Jun-19 13:01N 60°04' E 019°12'917.3
2018-Jun-19 12:31N 60°11' E 019°02'916.9
2018-Jun-19 11:59N 60°19' E 019°00'18 0.5
2018-Jun-18 00:32N 60°36' E 018°47'014.5
2018-Jun-18 00:30N 60°36' E 018°48'714.1
2018-Jun-18 00:00N 60°31' E 018°58'713.9
2018-Jun-17 23:30N 60°25' E 019°01'714.9
2018-Jun-17 23:00N 60°17' E 019°01'714.7
2018-Jun-17 22:30N 60°10' E 019°07'714.8
2018-Jun-17 22:00N 60°05' E 019°16'714.8
2018-Jun-17 21:30N 59°59' E 019°26'814.7
2018-Jun-17 20:57N 59°53' E 019°37'1314.7
2018-Jun-17 20:02N 59°42' E 019°53'117.0
2018-Jun-17 20:00N 59°42' E 019°54'2713.0
2018-Jun-17 17:56N 59°16' E 020°06'715.4
2018-Jun-17 17:28N 59°09' E 020°04'815.6
2018-Jun-17 16:57N 59°01' E 020°01'915.5
2018-Jun-17 16:21N 58°51' E 019°57'715.2
2018-Jun-17 15:54N 58°45' E 019°55'2615.3
2018-Jun-17 14:11N 58°19' E 019°46'315.1
2018-Jun-17 14:00N 58°16' E 019°46'815.3
2018-Jun-17 13:30N 58°09' E 019°43'815.0
2018-Jun-17 12:59N 58°01' E 019°40'714.9
2018-Jun-17 12:30N 57°54' E 019°38'5517.5
2018-Jun-17 09:20N 56°59' E 019°25'617.3
2018-Jun-17 08:58N 56°53' E 019°24'817.3
2018-Jun-17 08:30N 56°45' E 019°23'917.6
2018-Jun-17 08:00N 56°36' E 019°22'917.6
2018-Jun-17 07:30N 56°27' E 019°21'917.3
2018-Jun-17 07:00N 56°18' E 019°19'917.5
2018-Jun-17 06:30N 56°10' E 019°18'917.7
2018-Jun-17 06:00N 56°01' E 019°17'917.5
2018-Jun-17 05:30N 55°52' E 019°16'917.5
2018-Jun-17 05:00N 55°44' E 019°15'917.7
2018-Jun-17 04:30N 55°35' E 019°14'917.6
2018-Jun-17 04:00N 55°26' E 019°12'917.6
2018-Jun-17 03:30N 55°17' E 019°11'917.6
2018-Jun-17 03:00N 55°08' E 019°10'917.6
2018-Jun-17 02:30N 54°60' E 019°08'917.6
2018-Jun-17 02:00N 54°51' E 019°07'918.0
2018-Jun-17 01:30N 54°42' E 019°06'917.3
2018-Jun-17 01:00N 54°33' E 019°05'816.9
2018-Jun-17 00:30N 54°26' E 018°57'713.6
2018-Jun-17 00:01N 54°24' E 018°46'2 4.3
2018-Jun-16 23:31N 54°23' E 018°43'0 0.1
2018-Jun-16 23:00N 54°23' E 018°43'0 0.0
2018-Jun-16 22:27N 54°23' E 018°43'0 0.0
2018-Jun-16 21:57N 54°23' E 018°43'0 0.0
2018-Jun-16 21:30N 54°23' E 018°43'0 0.0
2018-Jun-16 21:00N 54°23' E 018°43'0 0.0
2018-Jun-16 20:30N 54°23' E 018°43'0 0.0
2018-Jun-16 20:00N 54°23' E 018°43'0 0.0
2018-Jun-16 19:30N 54°23' E 018°43'0 0.0
2018-Jun-16 19:00N 54°23' E 018°43'0 0.0
2018-Jun-16 18:30N 54°23' E 018°43'0 0.0
2018-Jun-16 18:00N 54°23' E 018°43'0 0.0
2018-Jun-16 17:30N 54°23' E 018°43'0 0.0
2018-Jun-16 17:00N 54°23' E 018°43'0 0.0
2018-Jun-16 16:27N 54°23' E 018°43'0 0.0
2018-Jun-16 16:00N 54°23' E 018°43'0 0.0
2018-Jun-16 15:30N 54°23' E 018°43'0 0.0
2018-Jun-16 15:00N 54°23' E 018°43'0 0.0
2018-Jun-16 14:30N 54°23' E 018°43'0 0.0
2018-Jun-16 14:00N 54°23' E 018°43'0 0.0
2018-Jun-16 13:27N 54°23' E 018°43'0 0.0
2018-Jun-16 13:00N 54°23' E 018°43'0 0.0
2018-Jun-16 12:30N 54°23' E 018°43'0 0.0
2018-Jun-16 12:00N 54°23' E 018°43'0 0.0
2018-Jun-16 11:30N 54°23' E 018°43'0 0.0
2018-Jun-16 11:00N 54°23' E 018°43'0 0.0
2018-Jun-16 10:30N 54°23' E 018°43'0 0.0
2018-Jun-16 10:00N 54°23' E 018°43'0 0.0
2018-Jun-16 09:30N 54°23' E 018°43'0 0.0
2018-Jun-16 09:00N 54°23' E 018°43'0 0.0
2018-Jun-16 08:30N 54°23' E 018°43'0 0.0
2018-Jun-16 08:00N 54°23' E 018°43'0 0.0
2018-Jun-16 07:30N 54°23' E 018°43'0 0.0
2018-Jun-16 07:00N 54°23' E 018°43'0 0.0
2018-Jun-16 06:30N 54°23' E 018°43'0 0.0
2018-Jun-16 06:00N 54°23' E 018°43'0 0.0
2018-Jun-16 05:30N 54°23' E 018°43'0 0.0
2018-Jun-16 05:00N 54°23' E 018°43'0 0.0
2018-Jun-16 04:30N 54°23' E 018°43'0 0.0
2018-Jun-16 04:00N 54°23' E 018°43'0 0.0
2018-Jun-16 03:30N 54°23' E 018°43'1 2.6
2018-Jun-16 03:00N 54°24' E 018°44'3 5.0
2018-Jun-16 02:30N 54°25' E 018°48'5 9.6
2018-Jun-16 02:00N 54°27' E 018°56'510.8
2018-Jun-16 01:30N 54°32' E 019°00'611.0
2018-Jun-16 01:00N 54°37' E 019°04'611.0
2018-Jun-16 00:29N 54°42' E 019°02'510.7
2018-Jun-16 00:00N 54°47' E 018°57'611.1
2018-Jun-15 23:30N 54°50' E 018°50'611.2
2018-Jun-15 23:00N 54°54' E 018°42'611.1
2018-Jun-15 22:29N 54°57' E 018°33'811.3
2018-Jun-15 21:46N 54°56' E 018°19'311.4
2018-Jun-15 21:29N 54°56' E 018°14'11510.9
2018-Jun-15 10:59N 54°38' E 014°57'3810.5
2018-Jun-15 07:22N 54°44' E 013°52'3411.2
2018-Jun-15 04:20N 55°07' E 013°08'511.3
2018-Jun-15 03:56N 55°10' E 013°02'511.3
2018-Jun-15 03:30N 55°13' E 012°55'611.4
2018-Jun-15 03:00N 55°16' E 012°47'510.9
2018-Jun-15 02:30N 55°19' E 012°39'510.6
2018-Jun-15 02:00N 55°24' E 012°39'510.9
2018-Jun-15 01:30N 55°29' E 012°41'611.2
2018-Jun-15 01:00N 55°35' E 012°42'613.0
2018-Jun-15 00:30N 55°41' E 012°41'816.1
2018-Jun-15 00:00N 55°49' E 012°42'816.2
2018-Jun-14 23:30N 55°57' E 012°39'816.0
2018-Jun-14 23:00N 56°05' E 012°35'7717.2
2018-Jun-14 18:31N 57°18' E 011°48'017.8
2018-Jun-14 18:30N 57°18' E 011°48'917.5
2018-Jun-14 18:00N 57°26' E 011°43'816.2
2018-Jun-14 17:30N 57°34' E 011°39'510.8
2018-Jun-14 17:00N 57°39' E 011°43'510.8
2018-Jun-14 16:30N 57°41' E 011°52'0 0.1
2018-Jun-14 16:00N 57°41' E 011°52'0 0.0
2018-Jun-14 15:28N 57°41' E 011°52'0 0.0
2018-Jun-14 14:58N 57°41' E 011°52'0 0.0
2018-Jun-14 14:28N 57°41' E 011°52'0 0.0
2018-Jun-14 13:55N 57°41' E 011°52'0 0.0
2018-Jun-14 13:28N 57°41' E 011°52'0 0.0
2018-Jun-14 12:58N 57°41' E 011°52'0 0.0
2018-Jun-14 12:28N 57°41' E 011°52'0 0.0
2018-Jun-14 11:58N 57°41' E 011°52'0 0.0
2018-Jun-14 11:28N 57°41' E 011°52'0 0.0
2018-Jun-14 10:58N 57°41' E 011°52'0 0.0
2018-Jun-14 10:28N 57°41' E 011°52'0 0.0
2018-Jun-14 09:58N 57°41' E 011°52'0 0.0
2018-Jun-14 09:28N 57°41' E 011°52'0 0.0
2018-Jun-14 08:58N 57°41' E 011°52'0 0.0
2018-Jun-14 08:28N 57°41' E 011°52'0 0.0
2018-Jun-14 07:58N 57°41' E 011°52'0 0.0
2018-Jun-14 07:28N 57°41' E 011°52'0 0.0
2018-Jun-14 06:58N 57°41' E 011°52'0 0.0
2018-Jun-14 06:28N 57°41' E 011°52'0 0.0
2018-Jun-14 05:58N 57°41' E 011°52'0 0.0
2018-Jun-14 05:28N 57°41' E 011°52'0 0.0
2018-Jun-14 04:58N 57°41' E 011°52'0 0.1
2018-Jun-14 04:31N 57°41' E 011°52'3 5.7
2018-Jun-14 04:00N 57°40' E 011°47'713.3
2018-Jun-14 03:31N 57°37' E 011°36'713.4
2018-Jun-14 03:00N 57°39' E 011°25'713.3
2018-Jun-14 02:30N 57°42' E 011°13'714.1
2018-Jun-14 02:00N 57°45' E 011°02'37715.5
2018-Jun-13 01:37N 53°08' E 003°29'318.0
2018-Jun-13 01:28N 53°06' E 003°27'918.1
2018-Jun-13 00:58N 52°57' E 003°22'917.3
2018-Jun-13 00:26N 52°51' E 003°12'4916.7
2018-Jun-12 21:31N 52°19' E 002°11'116.1
2018-Jun-12 21:26N 52°18' E 002°09'715.8
2018-Jun-12 21:00N 52°14' E 002°01'815.6
2018-Jun-12 20:30N 52°09' E 001°51'815.2
2018-Jun-12 20:00N 52°04' E 001°42'  
Track history (hours):
 
Tides and Currents Weather Stations Pressure Air Temp Water Temp Dewpoint Dewpoint Depression Visibility Wind Speed Wind Dir Waves Ship Positions

Adelina D

Last reported at 2018-Jun-22 19:59 UTC. Time now 2018-Jun-22 20:22 UTC.
Position N 53°36' E 008°09'.

Length 166 m; draft 9.4 m.

Type: Ship (hazmat cat A). MMSI: 235011610.

Date/timePositionNaut miles runAvg speedWind from/ knotsBaromVisibWave heightAir tempDewpointWater temp
2018-Jun-22 19:59N 53°36' E 008°09'27 6.7
2018-Jun-22 15:56N 53°57' E 008°37'614.1
2018-Jun-22 15:30N 53°53' E 008°43'714.8
2018-Jun-22 15:01N 53°51' E 008°55'815.4
2018-Jun-22 14:30N 53°53' E 009°08'1 1.3
2018-Jun-22 14:00N 53°54' E 009°09'2 3.2
2018-Jun-22 13:30N 53°55' E 009°11'3 6.6
2018-Jun-22 13:00N 53°57' E 009°14'3 6.6
2018-Jun-22 12:30N 53°60' E 009°18'3 6.6
2018-Jun-22 12:00N 54°03' E 009°18'4 6.7
2018-Jun-22 11:20N 54°08' E 009°20'2 5.9
2018-Jun-22 11:00N 54°09' E 009°22'38 5.2
2018-Jun-22 03:39N 54°29' E 010°17'412.3
2018-Jun-22 03:20N 54°31' E 010°23'515.3
2018-Jun-22 03:00N 54°33' E 010°31'816.2
2018-Jun-22 02:30N 54°35' E 010°45'815.2
2018-Jun-22 02:00N 54°36' E 010°58'714.1
2018-Jun-22 01:30N 54°36' E 011°10'713.7
2018-Jun-22 01:00N 54°33' E 011°20'714.5
2018-Jun-22 00:30N 54°30' E 011°31'714.6
2018-Jun-22 00:00N 54°27' E 011°43'714.2
2018-Jun-21 23:30N 54°27' E 011°55'6314.4
2018-Jun-21 19:08N 54°57' E 013°30'315.6
2018-Jun-21 18:58N 54°58' E 013°34'915.3
2018-Jun-21 18:24N 55°01' E 013°49'815.7
2018-Jun-21 17:52N 55°04' E 014°02'616.1
2018-Jun-21 17:30N 55°08' E 014°10'816.4
2018-Jun-21 17:00N 55°14' E 014°20'916.6
2018-Jun-21 16:26N 55°22' E 014°30'716.3
2018-Jun-21 15:59N 55°27' E 014°39'816.5
2018-Jun-21 15:28N 55°31' E 014°52'816.5
2018-Jun-21 15:00N 55°35' E 015°04'18615.2
2018-Jun-21 02:46N 58°24' E 017°26'416.4
2018-Jun-21 02:30N 58°29' E 017°27'815.7
2018-Jun-21 02:00N 58°36' E 017°26'611.7
2018-Jun-21 01:31N 58°37' E 017°15'816.6
2018-Jun-21 01:01N 58°37' E 016°59'816.7
2018-Jun-21 00:31N 58°37' E 016°43'713.4
2018-Jun-21 00:01N 58°39' E 016°31'713.5
2018-Jun-20 23:31N 58°38' E 016°18'2 3.4
2018-Jun-20 23:01N 58°37' E 016°15'0 0.0
2018-Jun-20 22:31N 58°37' E 016°15'0 0.0
2018-Jun-20 22:01N 58°37' E 016°15'0 0.0
2018-Jun-20 21:31N 58°37' E 016°15'0 0.0
2018-Jun-20 21:01N 58°37' E 016°15'0 0.0
2018-Jun-20 20:31N 58°37' E 016°15'0 0.0
2018-Jun-20 20:01N 58°37' E 016°15'0 0.0
2018-Jun-20 19:31N 58°37' E 016°15'0 0.0
2018-Jun-20 18:58N 58°37' E 016°15'0 0.0
2018-Jun-20 18:31N 58°37' E 016°15'0 0.0
2018-Jun-20 17:58N 58°37' E 016°15'0 0.0
2018-Jun-20 17:31N 58°37' E 016°15'0 0.0
2018-Jun-20 17:01N 58°37' E 016°15'0 0.0
2018-Jun-20 16:31N 58°37' E 016°15'0 0.0
2018-Jun-20 16:01N 58°37' E 016°15'0 0.0
2018-Jun-20 15:29N 58°37' E 016°15'0 0.0
2018-Jun-20 14:59N 58°37' E 016°15'0 0.1
2018-Jun-20 14:26N 58°37' E 016°15'0 0.0
2018-Jun-20 13:59N 58°37' E 016°15'0 0.0
2018-Jun-20 13:30N 58°37' E 016°15'0 0.0
2018-Jun-20 12:59N 58°37' E 016°15'0 0.0
2018-Jun-20 12:29N 58°37' E 016°15'0 0.0
2018-Jun-20 11:59N 58°37' E 016°15'0 0.0
2018-Jun-20 11:30N 58°37' E 016°15'0 0.0
2018-Jun-20 10:59N 58°37' E 016°15'0 0.0
2018-Jun-20 10:29N 58°37' E 016°15'0 0.0
2018-Jun-20 10:00N 58°37' E 016°15'0 0.0
2018-Jun-20 09:30N 58°37' E 016°15'0 0.0
2018-Jun-20 08:59N 58°37' E 016°15'0 0.0
2018-Jun-20 08:29N 58°37' E 016°15'0 0.0
2018-Jun-20 07:59N 58°37' E 016°15'0 0.0
2018-Jun-20 07:29N 58°37' E 016°15'0 0.0
2018-Jun-20 07:00N 58°37' E 016°15'0 0.0
2018-Jun-20 06:29N 58°37' E 016°15'0 0.0
2018-Jun-20 05:59N 58°37' E 016°15'0 0.0
2018-Jun-20 05:29N 58°37' E 016°15'0 0.0
2018-Jun-20 05:00N 58°37' E 016°15'0 0.0
2018-Jun-20 04:29N 58°37' E 016°15'0 0.0
2018-Jun-20 04:00N 58°37' E 016°15'0 0.0
2018-Jun-20 03:29N 58°37' E 016°15'0 0.0
2018-Jun-20 03:00N 58°37' E 016°15'1 2.5
2018-Jun-20 02:30N 58°38' E 016°17'612.2
2018-Jun-20 02:00N 58°39' E 016°28'612.5
2018-Jun-20 01:31N 58°38' E 016°40'713.7
2018-Jun-20 01:01N 58°36' E 016°53'816.0
2018-Jun-20 00:30N 58°38' E 017°08'815.2
2018-Jun-20 00:00N 58°37' E 017°23'510.5
2018-Jun-19 23:30N 58°36' E 017°32'9710.3
2018-Jun-19 14:08N 59°49' E 019°37'218.0
2018-Jun-19 14:00N 59°50' E 019°34'1117.2
2018-Jun-19 13:23N 59°59' E 019°21'717.6
2018-Jun-19 13:01N 60°04' E 019°12'917.3
2018-Jun-19 12:31N 60°11' E 019°02'916.9
2018-Jun-19 11:59N 60°19' E 019°00'18 0.5
2018-Jun-18 00:32N 60°36' E 018°47'014.5
2018-Jun-18 00:30N 60°36' E 018°48'714.1
2018-Jun-18 00:00N 60°31' E 018°58'713.9
2018-Jun-17 23:30N 60°25' E 019°01'714.9
2018-Jun-17 23:00N 60°17' E 019°01'714.7
2018-Jun-17 22:30N 60°10' E 019°07'714.8
2018-Jun-17 22:00N 60°05' E 019°16'714.8
2018-Jun-17 21:30N 59°59' E 019°26'814.7
2018-Jun-17 20:57N 59°53' E 019°37'1314.7
2018-Jun-17 20:02N 59°42' E 019°53'117.0
2018-Jun-17 20:00N 59°42' E 019°54'2713.0
2018-Jun-17 17:56N 59°16' E 020°06'715.4
2018-Jun-17 17:28N 59°09' E 020°04'815.6
2018-Jun-17 16:57N 59°01' E 020°01'915.5
2018-Jun-17 16:21N 58°51' E 019°57'715.2
2018-Jun-17 15:54N 58°45' E 019°55'2615.3
2018-Jun-17 14:11N 58°19' E 019°46'315.1
2018-Jun-17 14:00N 58°16' E 019°46'815.3
2018-Jun-17 13:30N 58°09' E 019°43'815.0
2018-Jun-17 12:59N 58°01' E 019°40'714.9
2018-Jun-17 12:30N 57°54' E 019°38'5517.5
2018-Jun-17 09:20N 56°59' E 019°25'617.3
2018-Jun-17 08:58N 56°53' E 019°24'817.3
2018-Jun-17 08:30N 56°45' E 019°23'917.6
2018-Jun-17 08:00N 56°36' E 019°22'917.6
2018-Jun-17 07:30N 56°27' E 019°21'917.3
2018-Jun-17 07:00N 56°18' E 019°19'917.5
2018-Jun-17 06:30N 56°10' E 019°18'917.7
2018-Jun-17 06:00N 56°01' E 019°17'917.5
2018-Jun-17 05:30N 55°52' E 019°16'917.5
2018-Jun-17 05:00N 55°44' E 019°15'917.7
2018-Jun-17 04:30N 55°35' E 019°14'917.6
2018-Jun-17 04:00N 55°26' E 019°12'917.6
2018-Jun-17 03:30N 55°17' E 019°11'917.6
2018-Jun-17 03:00N 55°08' E 019°10'917.6
2018-Jun-17 02:30N 54°60' E 019°08'917.6
2018-Jun-17 02:00N 54°51' E 019°07'918.0
2018-Jun-17 01:30N 54°42' E 019°06'917.3
2018-Jun-17 01:00N 54°33' E 019°05'816.9
2018-Jun-17 00:30N 54°26' E 018°57'713.6
2018-Jun-17 00:01N 54°24' E 018°46'2 4.3
2018-Jun-16 23:31N 54°23' E 018°43'0 0.1
2018-Jun-16 23:00N 54°23' E 018°43'0 0.0
2018-Jun-16 22:27N 54°23' E 018°43'0 0.0
2018-Jun-16 21:57N 54°23' E 018°43'0 0.0
2018-Jun-16 21:30N 54°23' E 018°43'0 0.0
2018-Jun-16 21:00N 54°23' E 018°43'0 0.0
2018-Jun-16 20:30N 54°23' E 018°43'0 0.0
2018-Jun-16 20:00N 54°23' E 018°43'0 0.0
2018-Jun-16 19:30N 54°23' E 018°43'0 0.0
2018-Jun-16 19:00N 54°23' E 018°43'0 0.0
2018-Jun-16 18:30N 54°23' E 018°43'0 0.0
2018-Jun-16 18:00N 54°23' E 018°43'0 0.0
2018-Jun-16 17:30N 54°23' E 018°43'0 0.0
2018-Jun-16 17:00N 54°23' E 018°43'0 0.0
2018-Jun-16 16:27N 54°23' E 018°43'0 0.0
2018-Jun-16 16:00N 54°23' E 018°43'0 0.0
2018-Jun-16 15:30N 54°23' E 018°43'0 0.0
2018-Jun-16 15:00N 54°23' E 018°43'0 0.0
2018-Jun-16 14:30N 54°23' E 018°43'0 0.0
2018-Jun-16 14:00N 54°23' E 018°43'0 0.0
2018-Jun-16 13:27N 54°23' E 018°43'0 0.0
2018-Jun-16 13:00N 54°23' E 018°43'0 0.0
2018-Jun-16 12:30N 54°23' E 018°43'0 0.0
2018-Jun-16 12:00N 54°23' E 018°43'0 0.0
2018-Jun-16 11:30N 54°23' E 018°43'0 0.0
2018-Jun-16 11:00N 54°23' E 018°43'0 0.0
2018-Jun-16 10:30N 54°23' E 018°43'0 0.0
2018-Jun-16 10:00N 54°23' E 018°43'0 0.0
2018-Jun-16 09:30N 54°23' E 018°43'0 0.0
2018-Jun-16 09:00N 54°23' E 018°43'0 0.0
2018-Jun-16 08:30N 54°23' E 018°43'0 0.0
2018-Jun-16 08:00N 54°23' E 018°43'0 0.0
2018-Jun-16 07:30N 54°23' E 018°43'0 0.0
2018-Jun-16 07:00N 54°23' E 018°43'0 0.0
2018-Jun-16 06:30N 54°23' E 018°43'0 0.0
2018-Jun-16 06:00N 54°23' E 018°43'0 0.0
2018-Jun-16 05:30N 54°23' E 018°43'0 0.0
2018-Jun-16 05:00N 54°23' E 018°43'0 0.0
2018-Jun-16 04:30N 54°23' E 018°43'0 0.0
2018-Jun-16 04:00N 54°23' E 018°43'0 0.0
2018-Jun-16 03:30N 54°23' E 018°43'1 2.6
2018-Jun-16 03:00N 54°24' E 018°44'3 5.0
2018-Jun-16 02:30N 54°25' E 018°48'5 9.6
2018-Jun-16 02:00N 54°27' E 018°56'510.8
2018-Jun-16 01:30N 54°32' E 019°00'611.0
2018-Jun-16 01:00N 54°37' E 019°04'611.0
2018-Jun-16 00:29N 54°42' E 019°02'510.7
2018-Jun-16 00:00N 54°47' E 018°57'611.1
2018-Jun-15 23:30N 54°50' E 018°50'611.2
2018-Jun-15 23:00N 54°54' E 018°42'611.1
2018-Jun-15 22:29N 54°57' E 018°33'811.3
2018-Jun-15 21:46N 54°56' E 018°19'311.4
2018-Jun-15 21:29N 54°56' E 018°14'11510.9
2018-Jun-15 10:59N 54°38' E 014°57'3810.5
2018-Jun-15 07:22N 54°44' E 013°52'3411.2
2018-Jun-15 04:20N 55°07' E 013°08'511.3
2018-Jun-15 03:56N 55°10' E 013°02'511.3
2018-Jun-15 03:30N 55°13' E 012°55'611.4
2018-Jun-15 03:00N 55°16' E 012°47'510.9
2018-Jun-15 02:30N 55°19' E 012°39'510.6
2018-Jun-15 02:00N 55°24' E 012°39'510.9
2018-Jun-15 01:30N 55°29' E 012°41'611.2
2018-Jun-15 01:00N 55°35' E 012°42'613.0
2018-Jun-15 00:30N 55°41' E 012°41'816.1
2018-Jun-15 00:00N 55°49' E 012°42'816.2
2018-Jun-14 23:30N 55°57' E 012°39'816.0
2018-Jun-14 23:00N 56°05' E 012°35'7717.2
2018-Jun-14 18:31N 57°18' E 011°48'017.8
2018-Jun-14 18:30N 57°18' E 011°48'917.5
2018-Jun-14 18:00N 57°26' E 011°43'816.2
2018-Jun-14 17:30N 57°34' E 011°39'510.8
2018-Jun-14 17:00N 57°39' E 011°43'510.8
2018-Jun-14 16:30N 57°41' E 011°52'0 0.1
2018-Jun-14 16:00N 57°41' E 011°52'0 0.0
2018-Jun-14 15:28N 57°41' E 011°52'0 0.0
2018-Jun-14 14:58N 57°41' E 011°52'0 0.0
2018-Jun-14 14:28N 57°41' E 011°52'0 0.0
2018-Jun-14 13:55N 57°41' E 011°52'0 0.0
2018-Jun-14 13:28N 57°41' E 011°52'0 0.0
2018-Jun-14 12:58N 57°41' E 011°52'0 0.0
2018-Jun-14 12:28N 57°41' E 011°52'0 0.0
2018-Jun-14 11:58N 57°41' E 011°52'0 0.0
2018-Jun-14 11:28N 57°41' E 011°52'0 0.0
2018-Jun-14 10:58N 57°41' E 011°52'0 0.0
2018-Jun-14 10:28N 57°41' E 011°52'0 0.0
2018-Jun-14 09:58N 57°41' E 011°52'0 0.0
2018-Jun-14 09:28N 57°41' E 011°52'0 0.0
2018-Jun-14 08:58N 57°41' E 011°52'0 0.0
2018-Jun-14 08:28N 57°41' E 011°52'0 0.0
2018-Jun-14 07:58N 57°41' E 011°52'0 0.0
2018-Jun-14 07:28N 57°41' E 011°52'0 0.0
2018-Jun-14 06:58N 57°41' E 011°52'0 0.0
2018-Jun-14 06:28N 57°41' E 011°52'0 0.0
2018-Jun-14 05:58N 57°41' E 011°52'0 0.0
2018-Jun-14 05:28N 57°41' E 011°52'0 0.0
2018-Jun-14 04:58N 57°41' E 011°52'0 0.1
2018-Jun-14 04:31N 57°41' E 011°52'3 5.7
2018-Jun-14 04:00N 57°40' E 011°47'713.3
2018-Jun-14 03:31N 57°37' E 011°36'713.4
2018-Jun-14 03:00N 57°39' E 011°25'713.3
2018-Jun-14 02:30N 57°42' E 011°13'714.1
2018-Jun-14 02:00N 57°45' E 011°02'37715.5
2018-Jun-13 01:37N 53°08' E 003°29'318.0
2018-Jun-13 01:28N 53°06' E 003°27'918.1
2018-Jun-13 00:58N 52°57' E 003°22'917.3
2018-Jun-13 00:26N 52°51' E 003°12'4916.7
2018-Jun-12 21:31N 52°19' E 002°11'116.1
2018-Jun-12 21:26N 52°18' E 002°09'715.8
2018-Jun-12 21:00N 52°14' E 002°01'815.6
2018-Jun-12 20:30N 52°09' E 001°51'815.2
2018-Jun-12 20:00N 52°04' E 001°42'  

Dump ship's entire track history